Terminal Aerodrome Forecast
Issued by NWS

Home | Current Version | Previous Version | Text Only | Print | Product List | Glossary On
Versions: 1 2 3 4 5 6 7 8 9 10 11 12 13 14 15 16 17 18 19 20 21 22
000
FTUS43 KSGF 240800 AAA
TAFJLN
TAF AMD
KJLN 240840Z 2409/2506 12007KT P6SM VCTS SCT050 BKN090CB
      WS020/19040KT
      TEMPO 2409/2412 6SM -TSRA
     FM241500 16014G24KT P6SM SCT050 BKN100
     FM242000 22014G22KT P6SM VCSH BKN050 OVC100
     FM250100 26012KT P6SM SCT050 SCT250=

USA.gov is the U.S. government's official web portal to all federal, state and local government web resources and services.